Time;durP1;ratioP1;P1;durP2;ratioP2;P2;SDS_P1;SDS_P2;PMS_P1;PMS_P2;Temp;Humidity;BMP_temperature;BMP_pressure;BME280_temperature;BME280_humidity;BME280_pressure;Samples;Min_cycle;Max_cycle;Signal;HPM_P1;HPM_P2
2022/04/02 00:01:21;;;;;;;2.80;2.40;;;;;;;-0.60;46.27;94666.16;5044078;28;20152;-67
2022/04/02 00:03:46;;;;;;;6.15;2.70;;;;;;;-0.91;48.06;94672.22;5038213;28;20113;-65
2022/04/02 00:06:12;;;;;;;3.95;2.50;;;;;;;-0.95;46.45;94665.56;5034566;28;20162;-66
2022/04/02 00:08:37;;;;;;;4.55;2.50;;;;;;;-0.98;45.74;94669.25;5028731;28;20614;-63
2022/04/02 00:11:02;;;;;;;3.53;2.40;;;;;;;-0.84;48.25;94667.28;4999176;28;20107;-66
2022/04/02 00:13:30;;;;;;;2.85;2.42;;;;;;;-1.06;49.35;94666.44;4987808;28;20268;-65
2022/04/02 00:15:57;;;;;;;4.78;2.50;;;;;;;-0.73;48.76;94661.16;5024371;28;20092;-66
2022/04/02 00:18:22;;;;;;;3.78;2.50;;;;;;;-0.93;46.78;94660.22;5023231;28;20469;-66
2022/04/02 00:20:48;;;;;;;3.33;2.22;;;;;;;-1.17;47.01;94664.75;5024061;28;20509;-67
2022/04/02 00:25:57;;;;;;;10.18;2.83;;;;;;;-0.70;48.24;94666.94;4987798;28;20213;-64
2022/04/02 00:28:22;;;;;;;3.28;2.55;;;;;;;-0.70;48.39;94666.13;5004140;28;20358;-66
2022/04/02 00:30:48;;;;;;;4.05;2.70;;;;;;;-0.93;46.39;94668.06;4997388;28;20180;-67
2022/04/02 00:33:13;;;;;;;4.68;2.67;;;;;;;-0.79;49.29;94677.34;5003286;28;20458;-65
2022/04/02 00:35:39;;;;;;;3.58;2.58;;;;;;;-0.87;48.12;94664.94;5043491;28;20089;-66
2022/04/02 00:38:04;;;;;;;3.30;2.40;;;;;;;-0.67;49.02;94671.09;5013498;28;20143;-63
2022/04/02 00:40:30;;;;;;;4.10;2.70;;;;;;;-0.67;49.07;94670.25;4984541;28;20086;-66
2022/04/02 00:42:55;;;;;;;5.65;2.70;;;;;;;-0.86;47.67;94677.03;5011880;28;20148;-65
2022/04/02 00:45:21;;;;;;;3.60;2.45;;;;;;;-1.23;45.68;94671.31;5038501;28;20450;-68
2022/04/02 00:47:46;;;;;;;2.75;2.40;;;;;;;-1.95;50.48;94678.03;5022937;28;20120;-66
2022/04/02 00:50:12;;;;;;;4.65;2.92;;;;;;;-1.50;50.02;94675.25;5015816;28;20653;-67
2022/04/02 00:52:40;;;;;;;3.17;2.40;;;;;;;-0.97;49.48;94680.53;5002847;28;20082;-64
2022/04/02 00:55:06;;;;;;;7.03;2.67;;;;;;;-1.14;44.94;94674.09;5033459;28;20504;-66
2022/04/02 00:57:31;;;;;;;3.25;2.60;;;;;;;-1.08;46.39;94676.22;5038455;28;20236;-66
2022/04/02 00:59:57;;;;;;;4.22;2.50;;;;;;;-0.99;46.36;94672.81;5043598;28;20116;-66
2022/04/02 01:02:22;;;;;;;3.88;2.67;;;;;;;-1.01;48.60;94684.38;5039911;28;20112;-63
2022/04/02 01:04:48;;;;;;;3.47;2.33;;;;;;;-1.11;47.39;94676.47;5043043;28;20085;-66
2022/04/02 01:07:16;;;;;;;3.60;2.78;;;;;;;-1.15;47.79;94688.13;5035952;28;20106;-65
2022/04/02 01:09:42;;;;;;;5.88;2.70;;;;;;;-0.98;50.30;94684.13;5033266;28;20117;-65
2022/04/02 01:12:07;;;;;;;6.65;2.97;;;;;;;-1.00;45.92;94686.00;5024218;28;20482;-67
2022/04/02 01:14:33;;;;;;;2.85;2.50;;;;;;;-1.17;45.91;94688.25;5036297;28;20158;-68
2022/04/02 01:17:01;;;;;;;3.42;2.60;;;;;;;-1.24;47.33;94692.34;5022241;28;20382;-67
2022/04/02 01:19:27;;;;;;;4.20;2.85;;;;;;;-1.01;48.08;94687.81;4991769;28;20290;-64
2022/04/02 01:21:52;;;;;;;3.20;2.40;;;;;;;-0.83;48.95;94688.06;4989908;28;20556;-65
2022/04/02 01:24:17;;;;;;;6.22;2.80;;;;;;;-0.96;49.19;94690.06;4996742;28;20082;-67
2022/04/02 01:26:43;;;;;;;3.75;2.67;;;;;;;-0.73;50.36;94695.13;5014643;28;20118;-64
2022/04/02 01:29:09;;;;;;;3.63;2.67;;;;;;;-0.62;48.26;94684.59;5022837;28;20113;-68
2022/04/02 01:31:34;;;;;;;3.42;2.58;;;;;;;-1.04;50.15;94692.47;5037081;28;20117;-67
2022/04/02 01:34:00;;;;;;;4.10;2.90;;;;;;;-0.84;48.88;94699.47;5041783;28;20105;-67
2022/04/02 01:36:25;;;;;;;2.95;2.60;;;;;;;-1.05;47.45;94694.22;5040134;28;20584;-67
2022/04/02 01:38:51;;;;;;;3.30;2.50;;;;;;;-1.65;49.81;94702.59;5020359;28;20102;-67
2022/04/02 01:41:16;;;;;;;4.20;2.50;;;;;;;-1.55;46.53;94697.47;5029675;28;20368;-66
2022/04/02 01:43:42;;;;;;;2.90;2.50;;;;;;;-1.42;46.65;94703.34;4983855;28;20090;-67
2022/04/02 01:46:07;;;;;;;3.88;2.55;;;;;;;-1.26;48.40;94708.13;4999673;28;20181;-65
2022/04/02 01:48:33;;;;;;;3.20;2.45;;;;;;;-1.21;49.37;94705.97;5022658;28;20210;-66
2022/04/02 01:50:58;;;;;;;5.82;2.63;;;;;;;-1.62;49.77;94707.59;5027952;28;20106;-67
2022/04/02 01:53:24;;;;;;;3.47;2.65;;;;;;;-1.88;46.18;94700.06;5034868;28;20093;-67
2022/04/02 01:55:50;;;;;;;2.65;2.42;;;;;;;-1.47;50.61;94710.72;5034957;28;20530;-66
2022/04/02 01:58:16;;;;;;;2.78;2.13;;;;;;;-1.60;46.91;94706.50;5040618;28;20134;-65
2022/04/02 02:00:41;;;;;;;2.53;2.30;;;;;;;-1.21;48.63;94710.38;5039737;28;20098;-65
2022/04/02 02:03:07;;;;;;;3.28;2.60;;;;;;;-1.19;46.41;94708.44;5040462;28;20101;-66
2022/04/02 02:05:35;;;;;;;4.55;2.60;;;;;;;-1.41;48.94;94712.00;5033269;28;20096;-64
2022/04/02 02:08:01;;;;;;;6.68;2.40;;;;;;;-1.37;47.22;94701.19;4988457;28;20095;-66
2022/04/02 02:10:27;;;;;;;3.22;2.53;;;;;;;-1.80;50.86;94721.16;4997949;28;20164;-67
2022/04/02 02:12:52;;;;;;;3.80;2.60;;;;;;;-1.54;50.69;94717.38;5013762;28;20085;-67
2022/04/02 02:15:18;;;;;;;4.22;2.40;;;;;;;-1.29;48.43;94716.22;5027215;28;20113;-68
2022/04/02 02:17:47;;;;;;;6.18;2.72;;;;;;;-1.40;47.16;94718.88;5013143;28;20277;-64
2022/04/02 02:20:13;;;;;;;3.50;2.35;;;;;;;-1.09;47.23;94719.78;4991793;28;20079;-67
2022/04/02 02:22:39;;;;;;;3.85;2.70;;;;;;;-1.54;48.89;94718.22;4976879;28;20132;-67
2022/04/02 02:25:06;;;;;;;2.53;2.28;;;;;;;-1.25;49.03;94729.88;5002373;28;20427;-67
2022/04/02 02:27:31;;;;;;;3.60;2.55;;;;;;;-1.37;45.67;94722.06;5001185;28;20122;-68
2022/04/02 02:29:57;;;;;;;5.32;2.40;;;;;;;-1.32;49.18;94719.09;5002103;28;20599;-68
2022/04/02 02:32:22;;;;;;;3.78;2.50;;;;;;;-1.10;48.95;94727.75;5001657;28;20136;-66
2022/04/02 02:37:32;;;;;;;4.88;2.42;;;;;;;-2.13;45.40;94730.72;5001809;28;20104;-68
2022/04/02 02:39:58;;;;;;;3.88;2.10;;;;;;;-1.37;50.77;94724.69;4998115;28;20547;-66
2022/04/02 02:42:23;;;;;;;3.67;2.45;;;;;;;-1.16;48.13;94721.25;5001627;28;20106;-64
2022/04/02 02:44:49;;;;;;;2.92;2.25;;;;;;;-1.32;46.60;94728.72;5002629;28;20078;-66
2022/04/02 02:47:14;;;;;;;5.05;2.20;;;;;;;-1.04;48.16;94726.44;5005835;28;20489;-65
2022/04/02 02:49:39;;;;;;;3.97;2.35;;;;;;;-1.10;47.40;94731.22;5004925;28;20122;-68
2022/04/02 02:52:05;;;;;;;3.17;2.35;;;;;;;-1.32;47.54;94729.53;5006301;28;20082;-68
2022/04/02 02:54:32;;;;;;;5.60;2.42;;;;;;;-1.65;47.20;94729.56;5003823;28;20602;-68
2022/04/02 02:56:58;;;;;;;3.75;2.70;;;;;;;-1.73;52.28;94730.16;5006062;28;20160;-66
2022/04/02 02:59:23;;;;;;;3.67;2.58;;;;;;;-2.49;47.73;94736.06;5005955;28;20519;-65
2022/04/02 03:01:49;;;;;;;3.97;2.25;;;;;;;-1.99;48.49;94733.09;5005477;28;20110;-67
2022/04/02 03:04:14;;;;;;;2.40;2.20;;;;;;;-1.64;49.48;94732.97;5005349;28;20097;-66
2022/04/02 03:06:39;;;;;;;2.42;2.22;;;;;;;-2.11;48.12;94731.41;5005408;28;20102;-67
2022/04/02 03:09:05;;;;;;;3.13;2.20;;;;;;;-1.74;47.25;94728.50;4999128;28;20152;-67
2022/04/02 03:11:30;;;;;;;2.40;2.00;;;;;;;-2.14;48.19;94731.69;4990238;28;20111;-66
2022/04/02 03:13:56;;;;;;;3.30;2.47;;;;;;;-3.16;49.89;94738.50;5004922;28;20109;-67
2022/04/02 03:16:21;;;;;;;2.22;2.05;;;;;;;-3.05;51.68;94742.88;5005559;28;20522;-66
2022/04/02 03:18:47;;;;;;;2.33;2.10;;;;;;;-2.66;51.99;94740.81;5004549;28;20109;-67
2022/04/02 03:21:12;;;;;;;4.75;2.20;;;;;;;-2.13;47.96;94741.16;5005484;28;20101;-65
2022/04/02 03:23:37;;;;;;;2.03;1.83;;;;;;;-2.77;50.31;94743.41;5027134;28;20105;-67
2022/04/02 03:26:03;;;;;;;2.63;2.08;;;;;;;-3.07;53.84;94748.19;5036571;28;20113;-65
2022/04/02 03:28:29;;;;;;;3.45;2.53;;;;;;;-2.77;56.05;94752.06;5045452;28;20113;-66
2022/04/02 03:30:54;;;;;;;2.78;2.15;;;;;;;-1.96;52.93;94752.88;5041494;28;20234;-67
2022/04/02 03:33:20;;;;;;;3.28;2.00;;;;;;;-1.61;50.40;94749.22;5044393;28;20104;-66
2022/04/02 03:35:46;;;;;;;3.92;2.08;;;;;;;-1.54;47.22;94746.09;5043726;28;20096;-67
2022/04/02 03:38:11;;;;;;;1.90;1.80;;;;;;;-1.63;48.80;94752.94;5033536;28;20448;-67
2022/04/02 03:40:37;;;;;;;2.20;2.00;;;;;;;-1.83;50.87;94755.34;5020208;28;20086;-67
2022/04/02 03:43:03;;;;;;;3.00;2.20;;;;;;;-2.22;49.12;94754.91;5044964;28;20580;-66
2022/04/02 03:45:29;;;;;;;3.05;2.20;;;;;;;-1.81;51.61;94763.03;5029934;28;20533;-67
2022/04/02 03:47:54;;;;;;;3.25;2.25;;;;;;;-1.68;47.78;94755.06;4985935;28;20091;-65
2022/04/02 03:50:20;;;;;;;2.20;2.03;;;;;;;-1.21;48.90;94755.59;4999973;28;20117;-67
2022/04/02 03:52:46;;;;;;;3.47;2.30;;;;;;;-1.47;45.67;94758.56;5024488;28;20090;-68
2022/04/02 03:55:12;;;;;;;2.95;1.98;;;;;;;-1.19;51.01;94757.25;5023577;28;20686;-66
2022/04/02 03:57:39;;;;;;;2.20;2.00;;;;;;;-1.24;48.52;94768.09;5023195;28;20124;-67
2022/04/02 04:00:06;;;;;;;4.13;2.28;;;;;;;-1.35;46.85;94767.16;5024503;28;20122;-66
2022/04/02 04:02:32;;;;;;;2.65;2.30;;;;;;;-1.15;49.17;94766.50;5022757;28;20145;-67
2022/04/02 04:04:59;;;;;;;3.08;2.30;;;;;;;-1.93;50.65;94776.09;5025058;28;20117;-67
2022/04/02 04:07:24;;;;;;;2.40;2.20;;;;;;;-1.57;50.04;94773.28;5005976;28;20566;-65
2022/04/02 04:09:50;;;;;;;3.05;2.25;;;;;;;-1.55;47.83;94770.56;5005035;28;20118;-65
2022/04/02 04:12:17;;;;;;;3.40;2.40;;;;;;;-1.58;46.58;94774.25;5031721;28;20228;-65
2022/04/02 04:14:43;;;;;;;3.08;2.55;;;;;;;-1.31;46.15;94777.38;5038356;28;20109;-66
2022/04/02 04:17:08;;;;;;;2.97;2.30;;;;;;;-1.29;47.04;94778.09;5039183;28;20078;-65
2022/04/02 04:19:34;;;;;;;2.22;2.00;;;;;;;-1.60;51.62;94778.75;4989459;28;20111;-66
2022/04/02 04:21:59;;;;;;;3.75;2.33;;;;;;;-1.64;47.98;94780.78;4984671;28;20289;-67
2022/04/02 04:24:25;;;;;;;3.63;2.13;;;;;;;-1.67;46.04;94777.63;4998749;28;20086;-68
2022/04/02 04:26:50;;;;;;;2.42;2.22;;;;;;;-1.75;49.26;94784.28;5017387;28;20433;-65
2022/04/02 04:29:16;;;;;;;3.45;2.30;;;;;;;-1.88;47.41;94786.19;5023491;28;20093;-66
2022/04/02 04:31:41;;;;;;;3.25;2.30;;;;;;;-1.70;47.92;94788.28;5023414;28;20082;-65
2022/04/02 04:34:06;;;;;;;2.53;2.20;;;;;;;-1.77;46.31;94782.72;5016106;28;20176;-67
2022/04/02 04:36:32;;;;;;;2.00;1.80;;;;;;;-1.53;48.21;94787.75;5003739;28;20082;-67
2022/04/02 04:38:58;;;;;;;2.30;2.13;;;;;;;-1.36;49.62;94793.41;5008644;28;20316;-67
2022/04/02 04:41:23;;;;;;;3.22;2.30;;;;;;;-1.26;46.22;94798.72;5029076;28;20078;-66
2022/04/02 04:43:49;;;;;;;2.42;2.10;;;;;;;-1.96;44.76;94809.44;4985078;28;20129;-67
2022/04/02 04:46:18;;;;;;;2.38;2.17;;;;;;;-2.03;45.89;94804.69;5002398;28;20149;-67
2022/04/02 04:48:43;;;;;;;2.50;2.13;;;;;;;-1.98;46.42;94805.19;5023353;28;20090;-66
2022/04/02 04:51:09;;;;;;;2.78;2.40;;;;;;;-1.98;46.10;94804.34;5025820;28;20116;-67
2022/04/02 04:53:34;;;;;;;2.55;2.20;;;;;;;-1.90;47.83;94806.34;5015391;28;20129;-67
2022/04/02 04:56:00;;;;;;;2.15;1.92;;;;;;;-1.83;50.04;94815.38;4987746;28;20804;-65
2022/04/02 04:58:27;;;;;;;2.72;2.50;;;;;;;-2.24;46.67;94826.28;4994421;28;20110;-66
2022/04/02 05:00:53;;;;;;;2.88;2.13;;;;;;;-2.34;49.28;94820.13;5023502;28;20090;-67
2022/04/02 05:03:20;;;;;;;2.80;2.50;;;;;;;-3.48;50.83;94836.22;5038954;28;20112;-64
2022/04/02 05:05:45;;;;;;;2.55;2.25;;;;;;;-3.04;52.29;94830.50;5030184;28;20101;-67
2022/04/02 05:08:11;;;;;;;2.30;2.10;;;;;;;-2.63;49.46;94829.19;5030378;28;20738;-65
2022/04/02 05:10:39;;;;;;;6.80;2.92;;;;;;;-3.22;47.57;94835.28;4996182;28;20156;-67
2022/04/02 05:13:04;;;;;;;5.32;2.13;;;;;;;-2.21;51.20;94827.81;4984336;28;20107;-66
2022/04/02 05:15:30;;;;;;;4.85;2.45;;;;;;;-1.99;48.79;94827.00;5019030;28;20204;-63
2022/04/02 05:17:56;;;;;;;4.43;2.70;;;;;;;-2.58;47.42;94839.25;5022757;28;20102;-67
2022/04/02 05:20:21;;;;;;;2.88;2.60;;;;;;;-2.66;47.53;94833.78;5015140;28;20451;-65
2022/04/02 05:22:47;;;;;;;2.83;2.42;;;;;;;-2.01;50.38;94834.09;5011043;28;20114;-67
2022/04/02 05:25:12;;;;;;;3.70;2.13;;;;;;;-1.69;50.66;94831.72;5002664;28;20082;-65
2022/04/02 05:27:37;;;;;;;3.35;2.60;;;;;;;-1.88;46.13;94828.78;5040048;28;20132;-64
2022/04/02 05:30:04;;;;;;;2.40;2.20;;;;;;;-1.85;49.33;94838.97;5032782;28;20109;-63
2022/04/02 05:32:30;;;;;;;3.45;2.63;;;;;;;-1.59;44.17;94833.47;5042798;28;20156;-66
2022/04/02 05:34:56;;;;;;;2.42;2.22;;;;;;;-1.64;47.70;94837.38;5038286;28;20105;-68
2022/04/02 05:37:21;;;;;;;3.50;2.33;;;;;;;-1.56;50.48;94837.59;5030783;28;20097;-67
2022/04/02 05:39:47;;;;;;;2.70;2.15;;;;;;;-1.93;46.17;94843.13;4991379;28;20074;-67
2022/04/02 05:42:12;;;;;;;3.03;2.25;;;;;;;-1.37;49.11;94841.38;4997427;28;20112;-65
2022/04/02 05:44:38;;;;;;;3.28;2.17;;;;;;;-1.49;46.27;94849.22;5014492;28;20112;-67
2022/04/02 05:47:04;;;;;;;3.72;2.30;;;;;;;-1.65;44.68;94848.78;5017875;28;20275;-67
2022/04/02 05:49:30;;;;;;;3.40;2.15;;;;;;;-2.69;52.60;94862.69;5020021;28;20152;-66
2022/04/02 05:51:55;;;;;;;2.17;2.00;;;;;;;-1.69;50.14;94857.81;4999496;28;20090;-67
2022/04/02 05:54:20;;;;;;;2.85;2.05;;;;;;;-1.12;50.14;94858.50;5011923;28;20102;-67
2022/04/02 05:56:46;;;;;;;3.83;2.45;;;;;;;-1.78;45.44;94868.03;5017627;28;20085;-66
2022/04/02 05:59:11;;;;;;;2.67;2.25;;;;;;;-1.88;48.45;94872.28;5024570;28;20325;-66
2022/04/02 06:01:37;;;;;;;3.28;2.40;;;;;;;-1.88;48.56;94877.50;5012823;28;20630;-67
2022/04/02 06:04:03;;;;;;;2.60;2.40;;;;;;;-2.60;46.66;94890.69;4989050;28;20134;-67
2022/04/02 06:06:29;;;;;;;2.20;2.00;;;;;;;-1.41;48.27;94886.97;4988210;28;20141;-67
2022/04/02 06:08:54;;;;;;;3.33;2.35;;;;;;;-3.34;49.05;94887.28;4994991;28;20548;-66
2022/04/02 06:11:20;;;;;;;2.50;2.08;;;;;;;-1.79;51.07;94886.41;5000724;28;20114;-67
2022/04/02 06:13:46;;;;;;;4.25;2.47;;;;;;;-2.95;47.35;94896.72;5002386;28;20117;-68
2022/04/02 06:16:12;;;;;;;3.78;2.30;;;;;;;-1.39;47.56;94885.88;5000254;28;20418;-67
2022/04/02 06:18:37;;;;;;;2.30;2.10;;;;;;;-1.67;51.65;94887.25;4994796;28;20335;-64
2022/04/02 06:21:03;;;;;;;3.90;2.55;;;;;;;-1.39;47.60;94893.72;4989100;28;20079;-66
2022/04/02 06:23:29;;;;;;;5.05;2.70;;;;;;;-1.03;46.84;94903.97;4991755;28;20267;-67
2022/04/02 06:25:55;;;;;;;5.22;2.42;;;;;;;-1.14;43.19;94901.41;5006276;28;20106;-67
2022/04/02 06:28:20;;;;;;;2.90;2.53;;;;;;;-2.47;45.63;94916.69;5022161;28;20129;-67
2022/04/02 06:30:47;;;;;;;4.45;2.65;;;;;;;-1.34;45.14;94909.03;5021517;28;20199;-68
2022/04/02 06:33:12;;;;;;;2.60;2.40;;;;;;;-0.48;48.82;94912.72;5022325;28;20074;-65
2022/04/02 06:35:37;;;;;;;5.03;2.58;;;;;;;-1.46;43.17;94911.66;5020823;28;20504;-66
2022/04/02 06:38:03;;;;;;;3.33;2.72;;;;;;;-0.84;47.66;94918.22;5009511;28;20471;-64
2022/04/02 06:40:28;;;;;;;3.00;2.08;;;;;;;-0.67;44.26;94909.00;5002214;28;20082;-66
2022/04/02 06:42:56;;;;;;;4.60;3.05;;;;;;;0.05;46.84;94918.84;5028832;28;20102;-67
2022/04/02 06:45:22;;;;;;;5.25;3.30;;;;;;;-0.74;47.42;94926.97;5038414;28;20127;-65
2022/04/02 06:47:48;;;;;;;4.85;3.38;;;;;;;-0.03;44.58;94919.47;5041809;28;20078;-67
2022/04/02 06:50:13;;;;;;;4.20;3.17;;;;;;;0.54;45.57;94926.06;5039652;28;20116;-64
2022/04/02 06:52:39;;;;;;;4.20;2.92;;;;;;;0.42;39.28;94926.19;5028762;28;20674;-68
2022/04/02 06:55:08;;;;;;;5.55;3.35;;;;;;;0.58;44.76;94935.34;5037516;28;20432;-67
2022/04/02 06:57:39;;;;;;;6.20;3.33;;;;;;;0.06;42.83;94938.81;5041459;28;20093;-68
2022/04/02 07:00:08;;;;;;;4.50;3.25;;;;;;;-1.24;46.45;94935.25;5041269;28;20092;-66
2022/04/02 07:02:33;;;;;;;7.20;3.70;;;;;;;-0.25;46.84;94936.13;5029759;28;20152;-67
2022/04/02 07:04:58;;;;;;;4.05;3.17;;;;;;;0.55;44.16;94931.19;5024044;28;20092;-67
2022/04/02 07:07:24;;;;;;;4.53;3.00;;;;;;;1.22;42.63;94938.53;5017282;28;20103;-64
2022/04/02 07:09:49;;;;;;;2.72;2.50;;;;;;;1.46;38.23;94931.22;5011456;28;20579;-66
2022/04/02 07:12:15;;;;;;;5.20;3.60;;;;;;;1.53;41.77;94947.28;5002612;28;20421;-66
2022/04/02 07:14:40;;;;;;;5.35;3.38;;;;;;;1.81;38.62;94935.09;5013661;28;20423;-66
2022/04/02 07:17:06;;;;;;;4.82;3.25;;;;;;;1.95;38.41;94941.75;5013243;28;20084;-67
2022/04/02 07:19:32;;;;;;;5.35;3.00;;;;;;;1.72;36.93;94946.47;4982733;28;20095;-65
2022/04/02 07:21:58;;;;;;;5.55;3.10;;;;;;;1.57;35.11;94949.50;4993210;28;20102;-67
2022/04/02 07:24:24;;;;;;;4.97;3.40;;;;;;;1.90;40.74;94937.88;4988872;28;20093;-65
2022/04/02 07:26:50;;;;;;;6.15;3.10;;;;;;;0.41;39.52;94952.53;5007390;28;20125;-67
2022/04/02 07:29:15;;;;;;;5.32;2.90;;;;;;;1.01;34.84;94949.13;5013923;28;20104;-65
2022/04/02 07:31:42;;;;;;;5.28;3.35;;;;;;;1.69;37.55;94951.97;5043002;28;20569;-65
2022/04/02 07:34:07;;;;;;;3.78;2.92;;;;;;;1.78;35.28;94961.66;5040462;28;20589;-66
2022/04/02 07:36:39;;;;;;;4.60;3.05;;;;;;;2.43;34.51;94959.31;5038809;28;20128;-68
2022/04/02 07:39:13;;;;;;;4.63;3.15;;;;;;;2.83;34.72;94960.84;5034475;28;20342;-66
2022/04/02 07:42:10;;;;;;;6.47;3.50;;;;;;;2.90;36.32;94956.63;5044595;28;20648;-65
2022/04/02 07:45:07;;;;;;;4.20;3.05;;;;;;;3.35;34.91;94954.19;5031559;28;20093;-67
2022/04/02 07:47:36;;;;;;;4.07;3.05;;;;;;;3.49;35.07;94967.81;5025174;28;20160;-67
2022/04/02 07:50:06;;;;;;;;;;;;;;;3.69;34.54;94963.25;5041877;28;20152;-65
2022/04/02 07:52:31;;;;;;;5.30;2.70;;;;;;;3.68;33.99;94967.66;5014332;28;19968;-65
2022/04/02 07:54:57;;;;;;;3.50;2.83;;;;;;;4.12;33.39;94973.13;5009296;28;20478;-67
2022/04/02 07:57:42;;;;;;;5.57;2.80;;;;;;;4.28;35.63;94967.97;5008751;28;20404;-67
2022/04/02 08:00:10;;;;;;;4.93;3.10;;;;;;;3.75;30.38;94964.44;5004277;28;20355;-64
2022/04/02 08:02:36;;;;;;;5.37;3.30;;;;;;;4.15;32.80;94965.75;5018560;28;20148;-67
2022/04/02 08:05:05;;;;;;;7.38;3.45;;;;;;;4.00;34.17;94978.66;5019290;28;20635;-63
2022/04/02 08:07:32;;;;;;;7.38;3.60;;;;;;;3.65;33.56;94975.06;5000171;28;20512;-64
2022/04/02 08:09:58;;;;;;;5.25;3.72;;;;;;;4.19;35.61;94980.25;5003276;28;20160;-65
2022/04/02 08:12:24;;;;;;;6.30;4.10;;;;;;;4.67;33.58;94985.19;4997047;28;20169;-66
2022/04/02 08:14:50;;;;;;;5.10;3.60;;;;;;;4.88;31.38;94985.78;4992832;28;20165;-65
2022/04/02 08:17:15;;;;;;;5.55;3.72;;;;;;;5.04;33.43;94980.56;4990027;28;20590;-63
2022/04/02 08:19:41;;;;;;;7.35;4.15;;;;;;;5.21;32.69;94984.13;5001994;28;20075;-67
2022/04/02 08:22:06;;;;;;;7.43;4.00;;;;;;;5.03;32.83;94996.59;5002818;28;20122;-67
2022/04/02 08:24:32;;;;;;;6.28;3.60;;;;;;;5.17;31.80;94998.63;5001877;28;20355;-67
2022/04/02 08:27:09;;;;;;;5.75;3.80;;;;;;;5.35;31.29;94998.53;5003908;28;20706;-66
2022/04/02 08:29:40;;;;;;;7.13;4.90;;;;;;;5.75;32.78;95003.25;5002549;28;20588;-66
2022/04/02 08:32:13;;;;;;;7.00;3.45;;;;;;;5.81;30.69;95007.03;5002342;28;20123;-66
2022/04/02 08:34:47;;;;;;;4.47;2.72;;;;;;;5.41;27.47;95002.34;5003119;28;20618;-67
2022/04/02 08:37:12;;;;;;;5.93;3.70;;;;;;;5.73;32.10;95005.22;5003968;28;20066;-66
2022/04/02 08:39:48;;;;;;;4.77;3.43;;;;;;;6.08;29.21;95015.66;4994956;28;20677;-66
2022/04/02 08:42:51;;;;;;;5.80;3.75;;;;;;;6.09;30.10;95022.63;5001577;28;20160;-66
2022/04/02 08:45:20;;;;;;;6.40;3.33;;;;;;;6.05;29.65;95023.94;5022572;28;20296;-67
2022/04/02 08:47:57;;;;;;;;;;;;;;;6.17;29.41;95019.13;5022738;28;20587;-64
2022/04/02 08:50:31;;;;;;;5.95;3.80;;;;;;;6.98;30.96;95029.84;5023553;28;20039;-67
2022/04/02 08:52:59;;;;;;;4.70;3.40;;;;;;;7.48;27.73;95020.88;5023723;28;20173;-65
2022/04/02 08:55:34;;;;;;;;;;;;;;;7.84;25.68;95006.28;5021188;28;20102;-66
2022/04/02 08:58:10;;;;;;;5.63;3.55;;;;;;;8.52;25.49;95024.16;5023159;28;20569;-65
2022/04/02 09:00:43;;;;;;;4.38;3.17;;;;;;;9.12;25.98;95029.59;5011537;28;20458;-65
2022/04/02 09:03:33;;;;;;;4.88;3.40;;;;;;;9.32;26.20;95029.84;5010967;28;20176;-64
2022/04/02 09:06:33;;;;;;;4.47;3.30;;;;;;;9.36;22.41;95029.47;5007478;28;20577;-66
2022/04/02 09:09:03;;;;;;;7.75;3.90;;;;;;;9.89;25.48;95033.78;4995121;28;20102;-64
2022/04/02 09:12:06;;;;;;;5.18;3.90;;;;;;;9.89;24.22;95039.09;5008210;28;20749;-66
2022/04/02 09:14:59;;;;;;;4.63;3.00;;;;;;;7.06;24.57;95049.31;5018879;28;20108;-65
2022/04/02 09:17:35;;;;;;;5.03;3.08;;;;;;;8.77;24.97;95048.63;5008186;28;20092;-65
2022/04/02 09:20:13;;;;;;;6.88;3.60;;;;;;;9.16;25.14;95051.28;5014920;28;20162;-66
2022/04/02 09:22:57;;;;;;;6.75;4.75;;;;;;;9.26;25.70;95059.81;5015301;28;20501;-66
2022/04/02 09:25:52;;;;;;;5.43;3.40;;;;;;;9.50;21.64;95055.22;5017243;28;20250;-64
2022/04/02 09:28:30;;;;;;;5.18;3.60;;;;;;;9.50;21.49;95059.69;5018801;28;20368;-63
2022/04/02 09:31:13;;;;;;;5.15;3.70;;;;;;;9.01;22.56;95059.25;5006755;28;20106;-64
2022/04/02 09:34:14;;;;;;;7.18;4.15;;;;;;;9.43;24.20;95056.94;5012347;28;20533;-66
2022/04/02 09:36:45;;;;;;;6.55;4.35;;;;;;;10.04;22.97;95055.84;5002150;28;20170;-65
2022/04/02 09:39:30;;;;;;;4.28;3.47;;;;;;;10.03;22.97;95066.66;5011060;28;20122;-63
2022/04/02 09:41:58;;;;;;;5.70;3.13;;;;;;;10.26;24.22;95065.69;5015296;28;20109;-64
2022/04/02 09:44:42;;;;;;;;;;;;;;;10.06;21.20;95064.47;5018414;28;20083;-66
2022/04/02 09:47:26;;;;;;;5.70;4.07;;;;;;;10.19;22.31;95070.94;5002140;28;20098;-66
2022/04/02 09:50:11;;;;;;;5.22;3.92;;;;;;;10.34;24.12;95073.56;4996166;28;20117;-65
2022/04/02 09:52:38;;;;;;;7.20;4.15;;;;;;;10.25;24.45;95082.66;4989194;28;20143;-66
2022/04/02 09:55:03;;;;;;;5.07;3.92;;;;;;;10.31;23.26;95080.09;4993404;28;20773;-65
2022/04/02 09:57:35;;;;;;;7.63;4.37;;;;;;;10.68;23.64;95079.16;4997595;28;20070;-66
2022/04/02 10:00:05;;;;;;;6.82;4.55;;;;;;;10.74;21.82;95092.53;4997212;28;20597;-65
2022/04/02 10:02:36;;;;;;;6.95;4.10;;;;;;;10.81;23.19;95099.75;4996000;28;20474;-67
2022/04/02 10:05:07;;;;;;;6.53;3.47;;;;;;;11.01;22.11;95097.25;4997911;28;20083;-65
2022/04/02 10:07:54;;;;;;;5.53;3.55;;;;;;;9.78;22.98;95102.38;5033549;28;20111;-68
2022/04/02 10:10:20;;;;;;;5.70;3.38;;;;;;;9.91;22.24;95100.88;5027330;28;20342;-65
2022/04/02 10:12:48;;;;;;;5.00;3.30;;;;;;;10.00;23.20;95098.94;5020158;28;20353;-65
2022/04/02 10:15:14;;;;;;;6.15;4.43;;;;;;;10.26;24.79;95103.75;5020213;28;20207;-67
2022/04/02 10:17:40;;;;;;;5.93;3.97;;;;;;;10.12;21.52;95102.78;5004150;28;20089;-65
2022/04/02 10:20:06;;;;;;;6.65;3.90;;;;;;;10.41;24.38;95100.22;4976684;28;20083;-65
2022/04/02 10:22:44;;;;;;;4.80;3.55;;;;;;;10.54;22.89;95103.00;5017728;28;20466;-66
2022/04/02 10:25:11;;;;;;;5.43;3.55;;;;;;;10.79;23.90;95101.78;5038257;28;20086;-66
2022/04/02 10:27:37;;;;;;;6.30;3.60;;;;;;;10.98;23.36;95102.97;5038152;28;20119;-67
2022/04/02 10:30:09;;;;;;;7.13;3.40;;;;;;;11.06;21.78;95105.50;5037293;28;20111;-66
2022/04/02 10:35:44;;;;;;;3.97;2.70;;;;;;;10.75;24.21;95107.47;4989817;28;20129;-66
2022/04/02 10:38:39;;;;;;;5.38;3.53;;;;;;;10.19;21.69;95113.50;4998296;28;20108;-67
2022/04/02 10:41:06;;;;;;;3.97;3.10;;;;;;;10.20;21.08;95109.84;5032933;28;20149;-67
2022/04/02 10:43:36;;;;;;;4.45;3.15;;;;;;;9.77;22.03;95114.00;5007621;28;20125;-67
2022/04/02 10:46:03;;;;;;;4.13;3.20;;;;;;;9.60;24.13;95121.34;5016719;28;20504;-66
2022/04/02 10:48:37;;;;;;;5.28;3.08;;;;;;;9.66;24.65;95119.81;5005299;28;20135;-67
2022/04/02 10:51:03;;;;;;;5.15;2.92;;;;;;;9.39;25.71;95130.88;4995123;28;20356;-68
2022/04/02 10:53:30;;;;;;;4.80;3.42;;;;;;;9.66;25.66;95131.25;4987259;28;20082;-65
2022/04/02 10:56:00;;;;;;;6.03;3.05;;;;;;;9.06;21.66;95129.38;4986928;28;20171;-65
2022/04/02 10:58:26;;;;;;;4.93;3.50;;;;;;;8.87;23.04;95135.19;5001748;28;20124;-66
2022/04/02 11:00:54;;;;;;;5.15;3.45;;;;;;;8.64;23.70;95133.38;4985553;28;20096;-65
2022/04/02 11:03:42;;;;;;;6.32;4.15;;;;;;;8.24;25.51;95136.09;5013061;28;20111;-65
2022/04/02 11:06:07;;;;;;;;;;;;;;;8.80;27.21;95137.69;5002840;28;20107;-66
2022/04/02 11:08:33;;;;;;;6.90;4.90;;;;;;;9.29;25.65;95147.06;5017706;28;20249;-67
2022/04/02 11:11:16;;;;;;;5.18;3.90;;;;;;;9.31;25.79;95144.25;5012491;28;20106;-66
2022/04/02 11:13:43;;;;;;;5.93;3.70;;;;;;;9.55;24.10;95145.81;5012785;28;20117;-66
2022/04/02 11:16:15;;;;;;;6.72;4.10;;;;;;;9.65;26.99;95148.19;5006143;28;20075;-68
2022/04/02 11:19:53;;;;;;;6.97;3.90;;;;;;;9.08;24.66;95151.25;5002962;28;20249;-66
2022/04/02 11:21:26;;;;;;;6.60;4.10;;;;;;;9.10;23.95;95152.91;4997730;28;20096;-68
2022/04/02 11:23:56;;;;;;;6.88;3.95;;;;;;;9.69;22.37;95152.13;5026134;28;20189;-67
2022/04/02 11:26:22;;;;;;;5.93;3.50;;;;;;;10.10;25.07;95152.69;5008443;28;20133;-67
2022/04/02 11:28:47;;;;;;;5.60;3.00;;;;;;;10.68;22.23;95146.53;4974509;28;20622;-67
2022/04/02 11:31:13;;;;;;;5.15;3.58;;;;;;;10.74;23.14;95158.25;4978963;28;20102;-66
2022/04/02 11:33:51;;;;;;;4.63;3.47;;;;;;;10.46;21.99;95151.88;4996493;28;20446;-67
2022/04/02 11:36:17;;;;;;;;;;;;;;;11.19;21.51;95149.25;4996736;28;20084;-66
2022/04/02 11:38:53;;;;;;;4.63;3.45;;;;;;;11.13;22.66;95157.00;5009914;28;19991;-67
2022/04/02 11:41:27;;;;;;;6.60;3.67;;;;;;;11.39;22.90;95152.03;5003372;28;20073;-68
2022/04/02 11:44:05;;;;;;;4.63;2.67;;;;;;;11.57;22.96;95161.41;5040990;28;20138;-69
2022/04/02 11:47:00;;;;;;;4.53;3.50;;;;;;;11.23;21.87;95166.50;5006539;28;20159;-67
2022/04/02 11:49:37;;;;;;;4.93;3.28;;;;;;;11.03;20.99;95155.66;4984606;28;20615;-68
2022/04/02 11:52:03;;;;;;;3.30;2.83;;;;;;;10.96;19.66;95168.91;4999087;28;20075;-70